sensor_id;sensor_type;location;lat;lon;timestamp;P1;durP1;ratioP1;P2;durP2;ratioP2
40997;SDS011;26740;45.944;12.480;2023-05-28T00:00:08;11.45;;;4.70;;
40997;SDS011;26740;45.944;12.480;2023-05-28T00:02:35;8.65;;;4.35;;
40997;SDS011;26740;45.944;12.480;2023-05-28T00:05:00;7.43;;;4.55;;
40997;SDS011;26740;45.944;12.480;2023-05-28T00:07:26;9.35;;;4.00;;
40997;SDS011;26740;45.944;12.480;2023-05-28T00:09:53;14.57;;;4.28;;
40997;SDS011;26740;45.944;12.480;2023-05-28T00:12:19;9.07;;;4.28;;
40997;SDS011;26740;45.944;12.480;2023-05-28T00:14:45;8.70;;;4.28;;
40997;SDS011;26740;45.944;12.480;2023-05-28T00:17:12;8.40;;;4.63;;
40997;SDS011;26740;45.944;12.480;2023-05-28T00:19:37;8.02;;;4.93;;
40997;SDS011;26740;45.944;12.480;2023-05-28T00:22:02;6.78;;;5.28;;
40997;SDS011;26740;45.944;12.480;2023-05-28T00:24:28;9.23;;;4.82;;
40997;SDS011;26740;45.944;12.480;2023-05-28T00:26:53;8.57;;;4.97;;
40997;SDS011;26740;45.944;12.480;2023-05-28T00:29:18;9.38;;;4.60;;
40997;SDS011;26740;45.944;12.480;2023-05-28T00:31:45;7.32;;;5.38;;
40997;SDS011;26740;45.944;12.480;2023-05-28T00:34:10;11.30;;;6.13;;
40997;SDS011;26740;45.944;12.480;2023-05-28T00:36:36;6.78;;;4.70;;
40997;SDS011;26740;45.944;12.480;2023-05-28T00:39:01;9.25;;;4.97;;
40997;SDS011;26740;45.944;12.480;2023-05-28T00:41:30;6.95;;;5.13;;
40997;SDS011;26740;45.944;12.480;2023-05-28T00:43:55;6.53;;;4.57;;
40997;SDS011;26740;45.944;12.480;2023-05-28T00:46:21;6.95;;;4.60;;
40997;SDS011;26740;45.944;12.480;2023-05-28T00:48:47;9.80;;;5.10;;
40997;SDS011;26740;45.944;12.480;2023-05-28T00:51:13;9.23;;;4.95;;
40997;SDS011;26740;45.944;12.480;2023-05-28T00:53:39;6.25;;;4.28;;
40997;SDS011;26740;45.944;12.480;2023-05-28T00:56:05;10.32;;;4.95;;
40997;SDS011;26740;45.944;12.480;2023-05-28T00:58:31;9.82;;;5.13;;
40997;SDS011;26740;45.944;12.480;2023-05-28T01:01:00;11.85;;;4.50;;
40997;SDS011;26740;45.944;12.480;2023-05-28T01:03:25;7.95;;;5.00;;
40997;SDS011;26740;45.944;12.480;2023-05-28T01:05:50;10.63;;;4.38;;
40997;SDS011;26740;45.944;12.480;2023-05-28T01:08:16;6.72;;;4.68;;
40997;SDS011;26740;45.944;12.480;2023-05-28T01:10:41;6.78;;;4.47;;
40997;SDS011;26740;45.944;12.480;2023-05-28T01:13:07;7.65;;;3.92;;
40997;SDS011;26740;45.944;12.480;2023-05-28T01:15:32;6.80;;;4.07;;
40997;SDS011;26740;45.944;12.480;2023-05-28T01:17:59;8.25;;;4.53;;
40997;SDS011;26740;45.944;12.480;2023-05-28T01:20:29;6.63;;;4.40;;
40997;SDS011;26740;45.944;12.480;2023-05-28T01:22:55;8.45;;;4.88;;
40997;SDS011;26740;45.944;12.480;2023-05-28T01:25:21;7.85;;;5.05;;
40997;SDS011;26740;45.944;12.480;2023-05-28T01:27:47;6.10;;;4.50;;
40997;SDS011;26740;45.944;12.480;2023-05-28T01:30:13;8.13;;;4.40;;
40997;SDS011;26740;45.944;12.480;2023-05-28T01:32:38;6.40;;;4.65;;
40997;SDS011;26740;45.944;12.480;2023-05-28T01:35:04;10.65;;;5.13;;
40997;SDS011;26740;45.944;12.480;2023-05-28T01:37:31;6.43;;;4.72;;
40997;SDS011;26740;45.944;12.480;2023-05-28T01:39:58;6.25;;;4.40;;
40997;SDS011;26740;45.944;12.480;2023-05-28T01:42:24;10.93;;;4.53;;
40997;SDS011;26740;45.944;12.480;2023-05-28T01:44:50;7.53;;;4.75;;
40997;SDS011;26740;45.944;12.480;2023-05-28T01:47:16;8.32;;;5.05;;
40997;SDS011;26740;45.944;12.480;2023-05-28T01:49:42;7.43;;;4.82;;
40997;SDS011;26740;45.944;12.480;2023-05-28T01:52:07;8.65;;;5.03;;
40997;SDS011;26740;45.944;12.480;2023-05-28T01:54:33;7.50;;;4.70;;
40997;SDS011;26740;45.944;12.480;2023-05-28T01:56:58;11.05;;;5.15;;
40997;SDS011;26740;45.944;12.480;2023-05-28T01:59:24;9.98;;;5.03;;
40997;SDS011;26740;45.944;12.480;2023-05-28T02:01:49;9.85;;;5.57;;
40997;SDS011;26740;45.944;12.480;2023-05-28T02:04:15;10.88;;;5.45;;
40997;SDS011;26740;45.944;12.480;2023-05-28T02:06:44;7.60;;;5.18;;
40997;SDS011;26740;45.944;12.480;2023-05-28T02:09:10;9.07;;;5.28;;
40997;SDS011;26740;45.944;12.480;2023-05-28T02:11:35;9.38;;;4.68;;
40997;SDS011;26740;45.944;12.480;2023-05-28T02:14:01;9.27;;;4.55;;
40997;SDS011;26740;45.944;12.480;2023-05-28T02:16:26;6.13;;;4.50;;
40997;SDS011;26740;45.944;12.480;2023-05-28T02:18:52;8.27;;;5.28;;
40997;SDS011;26740;45.944;12.480;2023-05-28T02:21:17;6.88;;;5.05;;
40997;SDS011;26740;45.944;12.480;2023-05-28T02:23:44;6.10;;;4.88;;
40997;SDS011;26740;45.944;12.480;2023-05-28T02:26:09;6.43;;;5.13;;
40997;SDS011;26740;45.944;12.480;2023-05-28T02:28:35;7.53;;;4.75;;
40997;SDS011;26740;45.944;12.480;2023-05-28T02:31:00;5.75;;;5.13;;
40997;SDS011;26740;45.944;12.480;2023-05-28T02:33:26;7.55;;;5.22;;
40997;SDS011;26740;45.944;12.480;2023-05-28T02:35:51;10.27;;;5.22;;
40997;SDS011;26740;45.944;12.480;2023-05-28T02:38:17;9.23;;;4.93;;
40997;SDS011;26740;45.944;12.480;2023-05-28T02:40:42;7.53;;;4.25;;
40997;SDS011;26740;45.944;12.480;2023-05-28T02:43:07;5.43;;;4.13;;
40997;SDS011;26740;45.944;12.480;2023-05-28T02:45:32;8.05;;;4.32;;
40997;SDS011;26740;45.944;12.480;2023-05-28T02:47:58;8.25;;;5.22;;
40997;SDS011;26740;45.944;12.480;2023-05-28T02:50:23;8.77;;;4.38;;
40997;SDS011;26740;45.944;12.480;2023-05-28T02:52:48;14.40;;;5.53;;
40997;SDS011;26740;45.944;12.480;2023-05-28T02:55:14;8.50;;;4.60;;
40997;SDS011;26740;45.944;12.480;2023-05-28T02:57:39;7.15;;;4.57;;
40997;SDS011;26740;45.944;12.480;2023-05-28T03:00:05;5.50;;;4.25;;
40997;SDS011;26740;45.944;12.480;2023-05-28T03:02:34;10.25;;;5.43;;
40997;SDS011;26740;45.944;12.480;2023-05-28T03:04:59;8.57;;;4.60;;
40997;SDS011;26740;45.944;12.480;2023-05-28T03:07:28;8.23;;;3.33;;
40997;SDS011;26740;45.944;12.480;2023-05-28T03:09:53;4.38;;;2.38;;
40997;SDS011;26740;45.944;12.480;2023-05-28T03:12:19;3.42;;;2.17;;
40997;SDS011;26740;45.944;12.480;2023-05-28T03:14:44;3.47;;;2.33;;
40997;SDS011;26740;45.944;12.480;2023-05-28T03:17:09;4.93;;;2.25;;
40997;SDS011;26740;45.944;12.480;2023-05-28T03:19:35;4.18;;;2.38;;
40997;SDS011;26740;45.944;12.480;2023-05-28T03:22:01;6.55;;;2.33;;
40997;SDS011;26740;45.944;12.480;2023-05-28T03:24:27;3.85;;;2.53;;
40997;SDS011;26740;45.944;12.480;2023-05-28T03:26:52;5.75;;;2.63;;
40997;SDS011;26740;45.944;12.480;2023-05-28T03:29:17;3.13;;;2.03;;
40997;SDS011;26740;45.944;12.480;2023-05-28T03:31:44;3.42;;;2.17;;
40997;SDS011;26740;45.944;12.480;2023-05-28T03:34:10;7.53;;;2.92;;
40997;SDS011;26740;45.944;12.480;2023-05-28T03:36:35;4.38;;;2.28;;
40997;SDS011;26740;45.944;12.480;2023-05-28T03:39:00;5.70;;;2.42;;
40997;SDS011;26740;45.944;12.480;2023-05-28T03:41:26;7.20;;;2.70;;
40997;SDS011;26740;45.944;12.480;2023-05-28T03:43:51;5.47;;;3.00;;
40997;SDS011;26740;45.944;12.480;2023-05-28T03:46:17;3.75;;;2.58;;
40997;SDS011;26740;45.944;12.480;2023-05-28T03:48:42;4.65;;;2.15;;
40997;SDS011;26740;45.944;12.480;2023-05-28T03:51:08;3.65;;;1.60;;
40997;SDS011;26740;45.944;12.480;2023-05-28T03:53:35;4.15;;;1.65;;
40997;SDS011;26740;45.944;12.480;2023-05-28T03:56:00;6.90;;;2.50;;
40997;SDS011;26740;45.944;12.480;2023-05-28T03:58:26;2.45;;;1.63;;
40997;SDS011;26740;45.944;12.480;2023-05-28T04:00:51;3.55;;;1.90;;
40997;SDS011;26740;45.944;12.480;2023-05-28T04:03:16;1.90;;;1.45;;
40997;SDS011;26740;45.944;12.480;2023-05-28T04:05:42;3.75;;;2.20;;
40997;SDS011;26740;45.944;12.480;2023-05-28T04:08:07;3.75;;;1.80;;
40997;SDS011;26740;45.944;12.480;2023-05-28T04:10:33;3.42;;;1.65;;
40997;SDS011;26740;45.944;12.480;2023-05-28T04:12:58;3.00;;;1.67;;
40997;SDS011;26740;45.944;12.480;2023-05-28T04:15:24;4.95;;;1.63;;
40997;SDS011;26740;45.944;12.480;2023-05-28T04:17:50;3.08;;;1.70;;
40997;SDS011;26740;45.944;12.480;2023-05-28T04:20:15;1.98;;;1.52;;
40997;SDS011;26740;45.944;12.480;2023-05-28T04:22:41;3.22;;;1.98;;
40997;SDS011;26740;45.944;12.480;2023-05-28T04:25:06;2.67;;;1.90;;
40997;SDS011;26740;45.944;12.480;2023-05-28T04:27:32;2.60;;;1.92;;
40997;SDS011;26740;45.944;12.480;2023-05-28T04:29:57;7.32;;;3.10;;
40997;SDS011;26740;45.944;12.480;2023-05-28T04:32:23;2.90;;;1.50;;
40997;SDS011;26740;45.944;12.480;2023-05-28T04:34:49;2.75;;;1.50;;
40997;SDS011;26740;45.944;12.480;2023-05-28T04:37:16;2.42;;;1.52;;
40997;SDS011;26740;45.944;12.480;2023-05-28T04:39:42;2.75;;;1.27;;
40997;SDS011;26740;45.944;12.480;2023-05-28T04:42:07;2.22;;;1.88;;
40997;SDS011;26740;45.944;12.480;2023-05-28T04:44:34;2.25;;;1.67;;
40997;SDS011;26740;45.944;12.480;2023-05-28T04:46:59;1.98;;;1.77;;
40997;SDS011;26740;45.944;12.480;2023-05-28T04:49:25;6.10;;;2.28;;
40997;SDS011;26740;45.944;12.480;2023-05-28T04:51:51;3.05;;;1.83;;
40997;SDS011;26740;45.944;12.480;2023-05-28T04:54:16;3.22;;;1.70;;
40997;SDS011;26740;45.944;12.480;2023-05-28T04:56:41;4.70;;;2.33;;
40997;SDS011;26740;45.944;12.480;2023-05-28T04:59:07;3.40;;;2.47;;
40997;SDS011;26740;45.944;12.480;2023-05-28T05:01:35;3.08;;;1.95;;
40997;SDS011;26740;45.944;12.480;2023-05-28T05:04:00;5.97;;;1.88;;
40997;SDS011;26740;45.944;12.480;2023-05-28T05:06:26;15.32;;;3.10;;
40997;SDS011;26740;45.944;12.480;2023-05-28T05:08:52;2.08;;;1.77;;
40997;SDS011;26740;45.944;12.480;2023-05-28T05:11:18;3.95;;;1.77;;
40997;SDS011;26740;45.944;12.480;2023-05-28T05:13:44;3.05;;;2.10;;
40997;SDS011;26740;45.944;12.480;2023-05-28T05:16:09;2.55;;;1.45;;
40997;SDS011;26740;45.944;12.480;2023-05-28T05:18:35;4.70;;;2.13;;
40997;SDS011;26740;45.944;12.480;2023-05-28T05:21:00;3.63;;;2.00;;
40997;SDS011;26740;45.944;12.480;2023-05-28T05:23:26;2.25;;;2.00;;
40997;SDS011;26740;45.944;12.480;2023-05-28T05:25:51;3.80;;;2.25;;
40997;SDS011;26740;45.944;12.480;2023-05-28T05:28:17;2.20;;;1.80;;
40997;SDS011;26740;45.944;12.480;2023-05-28T05:30:42;3.35;;;2.05;;
40997;SDS011;26740;45.944;12.480;2023-05-28T05:33:07;2.58;;;2.10;;
40997;SDS011;26740;45.944;12.480;2023-05-28T05:35:33;5.53;;;1.92;;
40997;SDS011;26740;45.944;12.480;2023-05-28T05:37:58;6.57;;;2.25;;
40997;SDS011;26740;45.944;12.480;2023-05-28T05:40:24;3.13;;;1.60;;
40997;SDS011;26740;45.944;12.480;2023-05-28T05:42:49;3.00;;;2.08;;
40997;SDS011;26740;45.944;12.480;2023-05-28T05:45:14;4.18;;;2.17;;
40997;SDS011;26740;45.944;12.480;2023-05-28T05:47:40;3.90;;;2.35;;
40997;SDS011;26740;45.944;12.480;2023-05-28T05:50:05;3.55;;;2.38;;
40997;SDS011;26740;45.944;12.480;2023-05-28T05:52:31;3.92;;;2.13;;
40997;SDS011;26740;45.944;12.480;2023-05-28T05:54:56;5.32;;;2.13;;
40997;SDS011;26740;45.944;12.480;2023-05-28T05:57:22;3.10;;;2.35;;
40997;SDS011;26740;45.944;12.480;2023-05-28T05:59:47;4.13;;;2.67;;
40997;SDS011;26740;45.944;12.480;2023-05-28T06:02:12;3.25;;;2.10;;
40997;SDS011;26740;45.944;12.480;2023-05-28T06:04:38;3.30;;;2.03;;
40997;SDS011;26740;45.944;12.480;2023-05-28T06:07:03;3.08;;;2.25;;
40997;SDS011;26740;45.944;12.480;2023-05-28T06:09:29;5.57;;;1.98;;
40997;SDS011;26740;45.944;12.480;2023-05-28T06:11:55;3.50;;;2.03;;
40997;SDS011;26740;45.944;12.480;2023-05-28T06:14:21;2.83;;;1.63;;
40997;SDS011;26740;45.944;12.480;2023-05-28T06:16:46;3.97;;;2.03;;
40997;SDS011;26740;45.944;12.480;2023-05-28T06:19:11;3.78;;;2.30;;
40997;SDS011;26740;45.944;12.480;2023-05-28T06:21:37;2.42;;;2.03;;
40997;SDS011;26740;45.944;12.480;2023-05-28T06:24:02;5.38;;;2.17;;
40997;SDS011;26740;45.944;12.480;2023-05-28T06:26:28;3.55;;;1.83;;
40997;SDS011;26740;45.944;12.480;2023-05-28T06:28:54;4.28;;;1.88;;
40997;SDS011;26740;45.944;12.480;2023-05-28T06:31:19;4.13;;;2.22;;
40997;SDS011;26740;45.944;12.480;2023-05-28T06:33:44;2.10;;;1.27;;
40997;SDS011;26740;45.944;12.480;2023-05-28T06:36:10;3.95;;;1.95;;
40997;SDS011;26740;45.944;12.480;2023-05-28T06:38:36;1.85;;;1.33;;
40997;SDS011;26740;45.944;12.480;2023-05-28T06:41:01;2.78;;;1.65;;
40997;SDS011;26740;45.944;12.480;2023-05-28T06:43:27;2.92;;;1.70;;
40997;SDS011;26740;45.944;12.480;2023-05-28T06:45:52;3.85;;;2.00;;
40997;SDS011;26740;45.944;12.480;2023-05-28T06:48:17;3.85;;;2.35;;
40997;SDS011;26740;45.944;12.480;2023-05-28T06:50:43;2.97;;;2.28;;
40997;SDS011;26740;45.944;12.480;2023-05-28T06:53:08;7.13;;;2.60;;
40997;SDS011;26740;45.944;12.480;2023-05-28T06:55:34;3.05;;;1.23;;
40997;SDS011;26740;45.944;12.480;2023-05-28T06:57:59;1.92;;;1.13;;
40997;SDS011;26740;45.944;12.480;2023-05-28T07:00:25;2.17;;;1.77;;
40997;SDS011;26740;45.944;12.480;2023-05-28T07:02:50;2.50;;;1.77;;
40997;SDS011;26740;45.944;12.480;2023-05-28T07:05:15;2.05;;;1.40;;
40997;SDS011;26740;45.944;12.480;2023-05-28T07:07:41;2.90;;;1.58;;
40997;SDS011;26740;45.944;12.480;2023-05-28T07:10:06;2.22;;;1.50;;
40997;SDS011;26740;45.944;12.480;2023-05-28T07:12:32;9.73;;;3.13;;
40997;SDS011;26740;45.944;12.480;2023-05-28T07:14:57;3.28;;;2.03;;
40997;SDS011;26740;45.944;12.480;2023-05-28T07:17:23;1.73;;;1.42;;
40997;SDS011;26740;45.944;12.480;2023-05-28T07:19:48;4.70;;;2.00;;
40997;SDS011;26740;45.944;12.480;2023-05-28T07:22:13;4.85;;;2.05;;
40997;SDS011;26740;45.944;12.480;2023-05-28T07:24:39;2.72;;;1.45;;
40997;SDS011;26740;45.944;12.480;2023-05-28T07:27:04;3.47;;;1.88;;
40997;SDS011;26740;45.944;12.480;2023-05-28T07:29:31;2.38;;;1.17;;
40997;SDS011;26740;45.944;12.480;2023-05-28T07:31:56;2.15;;;1.15;;
40997;SDS011;26740;45.944;12.480;2023-05-28T07:34:22;2.58;;;1.42;;
40997;SDS011;26740;45.944;12.480;2023-05-28T07:36:47;2.30;;;1.55;;
40997;SDS011;26740;45.944;12.480;2023-05-28T07:39:12;2.40;;;1.10;;
40997;SDS011;26740;45.944;12.480;2023-05-28T07:41:38;2.60;;;1.63;;
40997;SDS011;26740;45.944;12.480;2023-05-28T07:44:03;1.90;;;1.02;;
40997;SDS011;26740;45.944;12.480;2023-05-28T07:46:31;2.45;;;1.48;;
40997;SDS011;26740;45.944;12.480;2023-05-28T07:48:56;2.28;;;1.25;;
40997;SDS011;26740;45.944;12.480;2023-05-28T07:51:22;2.85;;;1.45;;
40997;SDS011;26740;45.944;12.480;2023-05-28T07:53:47;2.45;;;1.58;;
40997;SDS011;26740;45.944;12.480;2023-05-28T07:56:13;2.67;;;1.77;;
40997;SDS011;26740;45.944;12.480;2023-05-28T07:58:41;3.13;;;1.98;;
40997;SDS011;26740;45.944;12.480;2023-05-28T08:01:07;2.38;;;1.75;;
40997;SDS011;26740;45.944;12.480;2023-05-28T08:03:34;1.90;;;1.00;;
40997;SDS011;26740;45.944;12.480;2023-05-28T08:06:01;3.67;;;1.50;;
40997;SDS011;26740;45.944;12.480;2023-05-28T08:08:27;2.13;;;1.52;;
40997;SDS011;26740;45.944;12.480;2023-05-28T08:10:52;4.32;;;1.80;;
40997;SDS011;26740;45.944;12.480;2023-05-28T08:13:18;2.88;;;1.20;;
40997;SDS011;26740;45.944;12.480;2023-05-28T08:15:43;1.75;;;1.20;;
40997;SDS011;26740;45.944;12.480;2023-05-28T08:18:08;1.90;;;1.15;;
40997;SDS011;26740;45.944;12.480;2023-05-28T08:20:34;2.05;;;1.00;;
40997;SDS011;26740;45.944;12.480;2023-05-28T08:23:00;2.17;;;1.02;;
40997;SDS011;26740;45.944;12.480;2023-05-28T08:25:25;2.67;;;1.30;;
40997;SDS011;26740;45.944;12.480;2023-05-28T08:27:51;3.10;;;1.27;;
40997;SDS011;26740;45.944;12.480;2023-05-28T08:30:16;2.35;;;1.20;;
40997;SDS011;26740;45.944;12.480;2023-05-28T08:32:42;2.55;;;1.08;;
40997;SDS011;26740;45.944;12.480;2023-05-28T08:35:07;2.30;;;1.02;;
40997;SDS011;26740;45.944;12.480;2023-05-28T08:37:33;3.53;;;1.05;;
40997;SDS011;26740;45.944;12.480;2023-05-28T08:39:58;1.30;;;0.82;;
40997;SDS011;26740;45.944;12.480;2023-05-28T08:42:23;1.27;;;0.88;;
40997;SDS011;26740;45.944;12.480;2023-05-28T08:44:49;1.95;;;1.75;;
40997;SDS011;26740;45.944;12.480;2023-05-28T08:47:14;2.40;;;1.45;;
40997;SDS011;26740;45.944;12.480;2023-05-28T08:49:52;10.00;;;1.77;;
40997;SDS011;26740;45.944;12.480;2023-05-28T08:52:21;1.83;;;1.15;;
40997;SDS011;26740;45.944;12.480;2023-05-28T08:54:47;1.73;;;0.95;;
40997;SDS011;26740;45.944;12.480;2023-05-28T08:57:13;2.03;;;1.05;;
40997;SDS011;26740;45.944;12.480;2023-05-28T08:59:39;2.17;;;1.48;;
40997;SDS011;26740;45.944;12.480;2023-05-28T09:02:04;2.40;;;1.35;;
40997;SDS011;26740;45.944;12.480;2023-05-28T09:04:31;1.80;;;0.85;;
40997;SDS011;26740;45.944;12.480;2023-05-28T09:06:56;2.10;;;1.17;;
40997;SDS011;26740;45.944;12.480;2023-05-28T09:09:22;2.60;;;1.52;;
40997;SDS011;26740;45.944;12.480;2023-05-28T09:11:48;2.30;;;1.25;;
40997;SDS011;26740;45.944;12.480;2023-05-28T09:14:14;1.05;;;0.77;;
40997;SDS011;26740;45.944;12.480;2023-05-28T09:16:40;1.30;;;0.90;;
40997;SDS011;26740;45.944;12.480;2023-05-28T09:19:05;1.17;;;1.02;;
40997;SDS011;26740;45.944;12.480;2023-05-28T09:21:31;1.33;;;1.05;;
40997;SDS011;26740;45.944;12.480;2023-05-28T09:24:00;3.67;;;1.10;;
40997;SDS011;26740;45.944;12.480;2023-05-28T09:26:32;3.17;;;0.95;;
40997;SDS011;26740;45.944;12.480;2023-05-28T09:28:58;2.05;;;1.30;;
40997;SDS011;26740;45.944;12.480;2023-05-28T09:31:30;2.35;;;0.93;;
40997;SDS011;26740;45.944;12.480;2023-05-28T09:33:58;2.28;;;1.25;;
40997;SDS011;26740;45.944;12.480;2023-05-28T09:36:25;2.10;;;1.17;;
40997;SDS011;26740;45.944;12.480;2023-05-28T09:38:51;2.08;;;1.58;;
40997;SDS011;26740;45.944;12.480;2023-05-28T09:41:20;1.23;;;0.98;;
40997;SDS011;26740;45.944;12.480;2023-05-28T09:43:46;1.92;;;1.20;;
40997;SDS011;26740;45.944;12.480;2023-05-28T09:46:11;1.88;;;0.90;;
40997;SDS011;26740;45.944;12.480;2023-05-28T09:48:37;1.30;;;1.02;;
40997;SDS011;26740;45.944;12.480;2023-05-28T09:51:05;3.95;;;1.25;;
40997;SDS011;26740;45.944;12.480;2023-05-28T09:53:31;1.27;;;0.82;;
40997;SDS011;26740;45.944;12.480;2023-05-28T09:55:59;2.35;;;1.10;;
40997;SDS011;26740;45.944;12.480;2023-05-28T09:58:26;2.47;;;1.08;;
40997;SDS011;26740;45.944;12.480;2023-05-28T10:00:54;2.38;;;1.65;;
40997;SDS011;26740;45.944;12.480;2023-05-28T10:03:24;3.03;;;1.35;;
40997;SDS011;26740;45.944;12.480;2023-05-28T10:05:56;5.20;;;1.30;;
40997;SDS011;26740;45.944;12.480;2023-05-28T10:08:24;2.50;;;1.65;;
40997;SDS011;26740;45.944;12.480;2023-05-28T10:10:53;3.53;;;1.15;;
40997;SDS011;26740;45.944;12.480;2023-05-28T10:13:19;1.83;;;1.33;;
40997;SDS011;26740;45.944;12.480;2023-05-28T10:15:45;3.40;;;1.33;;
40997;SDS011;26740;45.944;12.480;2023-05-28T10:18:11;2.92;;;1.23;;
40997;SDS011;26740;45.944;12.480;2023-05-28T10:20:39;3.20;;;1.17;;
40997;SDS011;26740;45.944;12.480;2023-05-28T10:23:05;3.35;;;1.40;;
40997;SDS011;26740;45.944;12.480;2023-05-28T10:25:31;2.92;;;1.80;;
40997;SDS011;26740;45.944;12.480;2023-05-28T10:28:00;1.75;;;1.40;;
40997;SDS011;26740;45.944;12.480;2023-05-28T10:30:32;1.75;;;1.10;;
40997;SDS011;26740;45.944;12.480;2023-05-28T10:32:57;1.48;;;0.82;;
40997;SDS011;26740;45.944;12.480;2023-05-28T10:35:23;1.13;;;0.90;;
40997;SDS011;26740;45.944;12.480;2023-05-28T10:37:48;1.73;;;1.15;;
40997;SDS011;26740;45.944;12.480;2023-05-28T10:40:23;1.15;;;0.90;;
40997;SDS011;26740;45.944;12.480;2023-05-28T10:42:48;1.98;;;1.02;;
40997;SDS011;26740;45.944;12.480;2023-05-28T10:45:14;2.08;;;0.90;;
40997;SDS011;26740;45.944;12.480;2023-05-28T10:47:40;1.70;;;1.30;;
40997;SDS011;26740;45.944;12.480;2023-05-28T10:52:35;2.20;;;1.30;;
40997;SDS011;26740;45.944;12.480;2023-05-28T10:55:04;1.85;;;1.00;;
40997;SDS011;26740;45.944;12.480;2023-05-28T11:00:06;3.83;;;1.83;;
40997;SDS011;26740;45.944;12.480;2023-05-28T11:02:36;2.35;;;2.05;;
40997;SDS011;26740;45.944;12.480;2023-05-28T11:05:02;2.40;;;0.98;;
40997;SDS011;26740;45.944;12.480;2023-05-28T11:10:00;2.50;;;1.50;;
40997;SDS011;26740;45.944;12.480;2023-05-28T11:12:26;2.63;;;1.40;;
40997;SDS011;26740;45.944;12.480;2023-05-28T11:14:52;2.97;;;2.03;;
40997;SDS011;26740;45.944;12.480;2023-05-28T11:17:17;4.82;;;1.52;;
40997;SDS011;26740;45.944;12.480;2023-05-28T11:19:44;3.22;;;1.52;;
40997;SDS011;26740;45.944;12.480;2023-05-28T11:22:10;2.13;;;1.40;;
40997;SDS011;26740;45.944;12.480;2023-05-28T11:27:23;2.05;;;1.15;;
40997;SDS011;26740;45.944;12.480;2023-05-28T11:29:49;1.52;;;1.00;;
40997;SDS011;26740;45.944;12.480;2023-05-28T11:32:17;1.30;;;1.15;;
40997;SDS011;26740;45.944;12.480;2023-05-28T11:34:42;2.22;;;1.25;;
40997;SDS011;26740;45.944;12.480;2023-05-28T11:37:08;0.95;;;0.70;;
40997;SDS011;26740;45.944;12.480;2023-05-28T11:39:33;1.67;;;0.80;;
40997;SDS011;26740;45.944;12.480;2023-05-28T11:42:01;1.80;;;1.48;;
40997;SDS011;26740;45.944;12.480;2023-05-28T11:44:27;1.70;;;0.95;;
40997;SDS011;26740;45.944;12.480;2023-05-28T11:46:53;1.50;;;1.25;;
40997;SDS011;26740;45.944;12.480;2023-05-28T11:49:19;1.20;;;0.90;;
40997;SDS011;26740;45.944;12.480;2023-05-28T11:51:44;2.00;;;1.15;;
40997;SDS011;26740;45.944;12.480;2023-05-28T11:54:10;1.30;;;1.05;;
40997;SDS011;26740;45.944;12.480;2023-05-28T11:56:35;3.08;;;1.25;;
40997;SDS011;26740;45.944;12.480;2023-05-28T11:59:01;2.78;;;1.27;;
40997;SDS011;26740;45.944;12.480;2023-05-28T12:04:02;2.95;;;0.98;;
40997;SDS011;26740;45.944;12.480;2023-05-28T12:06:30;2.47;;;1.17;;
40997;SDS011;26740;45.944;12.480;2023-05-28T12:08:55;1.50;;;1.08;;
40997;SDS011;26740;45.944;12.480;2023-05-28T12:11:30;1.55;;;0.93;;
40997;SDS011;26740;45.944;12.480;2023-05-28T12:13:55;0.88;;;0.60;;
40997;SDS011;26740;45.944;12.480;2023-05-28T12:16:25;4.47;;;1.53;;
40997;SDS011;26740;45.944;12.480;2023-05-28T12:18:50;2.75;;;1.20;;
40997;SDS011;26740;45.944;12.480;2023-05-28T12:21:15;2.15;;;1.05;;
40997;SDS011;26740;45.944;12.480;2023-05-28T12:23:44;2.45;;;1.20;;
40997;SDS011;26740;45.944;12.480;2023-05-28T12:26:10;1.73;;;1.13;;
40997;SDS011;26740;45.944;12.480;2023-05-28T12:28:38;1.60;;;0.98;;
40997;SDS011;26740;45.944;12.480;2023-05-28T12:31:06;2.85;;;0.90;;
40997;SDS011;26740;45.944;12.480;2023-05-28T12:33:31;1.42;;;0.95;;
40997;SDS011;26740;45.944;12.480;2023-05-28T12:35:56;1.13;;;0.82;;
40997;SDS011;26740;45.944;12.480;2023-05-28T12:38:24;2.90;;;1.30;;
40997;SDS011;26740;45.944;12.480;2023-05-28T12:40:50;1.70;;;1.02;;
40997;SDS011;26740;45.944;12.480;2023-05-28T12:43:15;1.73;;;0.77;;
40997;SDS011;26740;45.944;12.480;2023-05-28T12:45:40;1.15;;;0.82;;
40997;SDS011;26740;45.944;12.480;2023-05-28T12:48:06;3.65;;;1.10;;
40997;SDS011;26740;45.944;12.480;2023-05-28T12:50:33;1.95;;;0.93;;
40997;SDS011;26740;45.944;12.480;2023-05-28T12:52:58;1.27;;;0.80;;
40997;SDS011;26740;45.944;12.480;2023-05-28T12:55:24;2.63;;;0.82;;
40997;SDS011;26740;45.944;12.480;2023-05-28T12:57:49;2.67;;;1.07;;
40997;SDS011;26740;45.944;12.480;2023-05-28T13:00:15;2.33;;;1.20;;
40997;SDS011;26740;45.944;12.480;2023-05-28T13:02:41;3.80;;;0.82;;
40997;SDS011;26740;45.944;12.480;2023-05-28T13:05:06;1.90;;;0.80;;
40997;SDS011;26740;45.944;12.480;2023-05-28T13:07:31;1.38;;;0.93;;
40997;SDS011;26740;45.944;12.480;2023-05-28T13:09:57;3.67;;;1.52;;
40997;SDS011;26740;45.944;12.480;2023-05-28T13:12:22;1.98;;;0.90;;
40997;SDS011;26740;45.944;12.480;2023-05-28T13:14:48;1.83;;;0.98;;
40997;SDS011;26740;45.944;12.480;2023-05-28T13:17:13;2.17;;;0.80;;
40997;SDS011;26740;45.944;12.480;2023-05-28T13:19:38;2.38;;;1.58;;
40997;SDS011;26740;45.944;12.480;2023-05-28T13:22:04;3.60;;;1.58;;
40997;SDS011;26740;45.944;12.480;2023-05-28T13:24:29;3.72;;;1.67;;
40997;SDS011;26740;45.944;12.480;2023-05-28T13:26:55;1.40;;;0.73;;
40997;SDS011;26740;45.944;12.480;2023-05-28T13:29:20;1.75;;;1.00;;
40997;SDS011;26740;45.944;12.480;2023-05-28T13:31:45;2.85;;;1.17;;
40997;SDS011;26740;45.944;12.480;2023-05-28T13:34:11;2.25;;;1.27;;
40997;SDS011;26740;45.944;12.480;2023-05-28T13:36:36;2.08;;;1.42;;
40997;SDS011;26740;45.944;12.480;2023-05-28T13:39:01;1.35;;;1.25;;
40997;SDS011;26740;45.944;12.480;2023-05-28T13:41:27;1.95;;;1.05;;
40997;SDS011;26740;45.944;12.480;2023-05-28T13:43:53;2.08;;;1.00;;
40997;SDS011;26740;45.944;12.480;2023-05-28T13:46:20;2.35;;;0.85;;
40997;SDS011;26740;45.944;12.480;2023-05-28T13:48:45;2.22;;;0.93;;
40997;SDS011;26740;45.944;12.480;2023-05-28T13:51:11;1.42;;;0.70;;
40997;SDS011;26740;45.944;12.480;2023-05-28T13:53:37;2.65;;;1.30;;
40997;SDS011;26740;45.944;12.480;2023-05-28T13:56:03;4.40;;;1.63;;
40997;SDS011;26740;45.944;12.480;2023-05-28T13:58:28;2.47;;;1.35;;
40997;SDS011;26740;45.944;12.480;2023-05-28T14:00:54;1.80;;;1.05;;
40997;SDS011;26740;45.944;12.480;2023-05-28T14:03:19;2.08;;;1.42;;
40997;SDS011;26740;45.944;12.480;2023-05-28T14:05:45;2.38;;;1.08;;
40997;SDS011;26740;45.944;12.480;2023-05-28T14:08:10;2.90;;;1.20;;
40997;SDS011;26740;45.944;12.480;2023-05-28T14:10:36;1.77;;;1.08;;
40997;SDS011;26740;45.944;12.480;2023-05-28T14:13:01;4.55;;;1.10;;
40997;SDS011;26740;45.944;12.480;2023-05-28T14:15:27;3.08;;;1.10;;
40997;SDS011;26740;45.944;12.480;2023-05-28T14:17:52;1.42;;;0.90;;
40997;SDS011;26740;45.944;12.480;2023-05-28T14:20:17;1.17;;;0.90;;
40997;SDS011;26740;45.944;12.480;2023-05-28T14:22:43;2.15;;;0.80;;
40997;SDS011;26740;45.944;12.480;2023-05-28T14:25:09;1.90;;;0.90;;
40997;SDS011;26740;45.944;12.480;2023-05-28T14:27:35;2.55;;;1.33;;
40997;SDS011;26740;45.944;12.480;2023-05-28T14:30:00;4.38;;;1.45;;
40997;SDS011;26740;45.944;12.480;2023-05-28T14:32:25;2.80;;;1.00;;
40997;SDS011;26740;45.944;12.480;2023-05-28T14:34:51;2.13;;;0.80;;
40997;SDS011;26740;45.944;12.480;2023-05-28T14:37:16;2.17;;;1.05;;